createdAt,value
2022-10-19T00:01:10.224Z,10.70
2022-10-19T00:03:39.167Z,10.70
2022-10-19T00:06:23.272Z,10.70
2022-10-19T00:08:51.950Z,10.70
2022-10-19T00:11:30.380Z,10.70
2022-10-19T00:14:00.583Z,10.60
2022-10-19T00:16:37.252Z,10.60
2022-10-19T00:19:08.546Z,10.60
2022-10-19T00:21:44.422Z,10.60
2022-10-19T00:24:13.179Z,10.60
2022-10-19T00:26:49.286Z,10.50
2022-10-19T00:29:18.273Z,10.50
2022-10-19T00:31:53.300Z,10.50
2022-10-19T00:34:21.825Z,10.50
2022-10-19T00:36:57.313Z,10.40
2022-10-19T00:39:26.148Z,10.40
2022-10-19T00:42:02.395Z,10.40
2022-10-19T00:45:11.331Z,10.40
2022-10-19T00:48:00.504Z,10.40
2022-10-19T00:50:35.469Z,10.30
2022-10-19T00:53:07.119Z,10.30
2022-10-19T00:55:42.307Z,10.30
2022-10-19T00:58:12.394Z,10.30
2022-10-19T01:00:47.404Z,10.30
2022-10-19T01:03:16.353Z,10.20
2022-10-19T01:05:52.291Z,10.20
2022-10-19T01:08:21.143Z,10.20
2022-10-19T01:11:05.447Z,10.20
2022-10-19T01:13:45.693Z,10.20
2022-10-19T01:16:27.346Z,10.20
2022-10-19T01:19:03.023Z,10.20
2022-10-19T01:21:44.507Z,10.20
2022-10-19T01:24:49.847Z,10.10
2022-10-19T01:28:22.321Z,10.10
2022-10-19T01:30:59.136Z,10.10
2022-10-19T01:33:44.455Z,10.10
2022-10-19T01:36:22.792Z,10.10
2022-10-19T01:39:02.343Z,10.10
2022-10-19T01:41:40.646Z,10.10
2022-10-19T01:44:22.375Z,10.10
2022-10-19T01:46:55.755Z,10.00
2022-10-19T01:49:42.489Z,10.00
2022-10-19T01:52:14.886Z,10.00
2022-10-19T01:54:52.496Z,10.00
2022-10-19T01:57:24.332Z,10.00
2022-10-19T02:00:00.549Z,10.00
2022-10-19T02:02:31.571Z,10.00
2022-10-19T02:05:07.356Z,10.00
2022-10-19T02:07:36.616Z,10.00
2022-10-19T02:12:47.010Z,10.00
2022-10-19T02:15:26.529Z,10.00
2022-10-19T02:17:59.981Z,9.90
2022-10-19T02:20:36.351Z,9.90
2022-10-19T02:23:06.412Z,9.90
2022-10-19T02:25:42.395Z,9.80
2022-10-19T02:28:10.948Z,9.80
2022-10-19T02:30:46.402Z,9.80
2022-10-19T02:33:17.034Z,9.80
2022-10-19T02:35:52.398Z,9.80
2022-10-19T02:38:24.010Z,9.80
2022-10-19T02:41:09.410Z,9.80
2022-10-19T02:43:40.660Z,9.80
2022-10-19T02:46:22.328Z,9.80
2022-10-19T02:48:59.846Z,9.80
2022-10-19T02:51:40.385Z,9.80
2022-10-19T02:54:10.035Z,9.80
2022-10-19T02:56:45.436Z,9.80
2022-10-19T02:59:13.800Z,9.70
2022-10-19T03:01:48.546Z,9.70
2022-10-19T03:04:18.657Z,9.70
2022-10-19T03:06:54.574Z,9.70
2022-10-19T03:09:23.010Z,9.70
2022-10-19T03:11:58.548Z,9.70
2022-10-19T03:14:27.015Z,9.70
2022-10-19T03:17:02.381Z,9.60
2022-10-19T03:19:33.132Z,9.60
2022-10-19T03:22:08.636Z,9.60
2022-10-19T03:24:37.953Z,9.60
2022-10-19T03:27:13.498Z,9.60
2022-10-19T03:29:41.979Z,9.60
2022-10-19T03:32:17.431Z,9.60
2022-10-19T03:34:47.553Z,9.60
2022-10-19T03:37:22.549Z,9.50
2022-10-19T03:39:51.026Z,9.50
2022-10-19T03:42:26.363Z,9.50
2022-10-19T03:44:54.898Z,9.50
2022-10-19T03:47:29.479Z,9.50
2022-10-19T03:50:06.989Z,9.50
2022-10-19T03:52:42.426Z,9.50
2022-10-19T03:55:11.918Z,9.40
2022-10-19T03:57:46.500Z,9.40
2022-10-19T04:00:16.109Z,9.40
2022-10-19T04:02:51.588Z,9.40
2022-10-19T04:05:21.816Z,9.40
2022-10-19T04:07:56.646Z,9.40
2022-10-19T04:10:25.094Z,9.40
2022-10-19T04:13:01.086Z,9.30
2022-10-19T04:15:29.738Z,9.40
2022-10-19T04:18:04.617Z,9.40
2022-10-19T04:20:34.677Z,9.40
2022-10-19T04:23:09.571Z,9.40
2022-10-19T04:25:38.099Z,9.30
2022-10-19T04:28:13.512Z,9.40
2022-10-19T04:30:41.872Z,9.40
2022-10-19T04:33:16.621Z,9.30
2022-10-19T04:35:46.721Z,9.40
2022-10-19T04:38:21.585Z,9.40
2022-10-19T04:40:50.015Z,9.30
2022-10-19T04:43:24.501Z,9.30
2022-10-19T04:45:52.987Z,9.30
2022-10-19T04:48:27.668Z,9.30
2022-10-19T04:51:03.930Z,9.30
2022-10-19T04:53:38.687Z,9.30
2022-10-19T04:56:08.820Z,9.20
2022-10-19T04:58:43.673Z,9.20
2022-10-19T05:01:13.486Z,9.20
2022-10-19T05:03:49.782Z,9.20
2022-10-19T05:06:19.900Z,9.20
2022-10-19T05:08:56.514Z,9.20
2022-10-19T05:11:25.555Z,9.20
2022-10-19T05:14:00.612Z,9.10
2022-10-19T05:16:29.229Z,9.10
2022-10-19T05:19:06.674Z,9.10
2022-10-19T05:21:36.893Z,9.10
2022-10-19T05:24:12.582Z,9.00
2022-10-19T05:26:41.137Z,9.00
2022-10-19T05:29:20.537Z,9.00
2022-10-19T05:31:49.217Z,9.00
2022-10-19T05:34:24.486Z,9.00
2022-10-19T05:36:56.871Z,9.00
2022-10-19T05:39:31.675Z,9.00
2022-10-19T05:42:00.168Z,8.90
2022-10-19T05:44:35.883Z,8.90
2022-10-19T05:47:11.649Z,8.90
2022-10-19T05:49:59.553Z,9.10
2022-10-19T05:52:36.567Z,8.90
2022-10-19T05:55:05.425Z,8.90
2022-10-19T05:57:40.589Z,8.90
2022-10-19T06:00:10.732Z,8.90
2022-10-19T06:02:45.598Z,8.90
2022-10-19T06:05:14.397Z,8.80
2022-10-19T06:07:50.586Z,8.80
2022-10-19T06:10:21.088Z,8.80
2022-10-19T06:12:56.541Z,8.80
2022-10-19T06:15:25.043Z,8.70
2022-10-19T06:17:59.658Z,8.80
2022-10-19T06:20:29.705Z,8.80
2022-10-19T06:23:06.684Z,8.80
2022-10-19T06:25:35.899Z,8.70
2022-10-19T06:28:12.748Z,8.70
2022-10-19T06:30:41.563Z,8.70
2022-10-19T06:33:16.616Z,8.70
2022-10-19T06:35:45.106Z,8.70
2022-10-19T06:38:21.578Z,8.70
2022-10-19T06:40:50.522Z,8.70
2022-10-19T06:43:25.762Z,8.70
2022-10-19T06:45:54.238Z,8.80
2022-10-19T06:48:29.655Z,8.70
2022-10-19T06:51:07.776Z,8.70
2022-10-19T06:53:48.345Z,8.80
2022-10-19T06:56:17.683Z,8.80
2022-10-19T06:58:53.738Z,8.80
2022-10-19T07:01:22.821Z,8.80
2022-10-19T07:03:59.647Z,8.80
2022-10-19T07:06:29.465Z,8.80
2022-10-19T07:09:05.659Z,8.80
2022-10-19T07:11:34.058Z,8.80
2022-10-19T07:14:09.675Z,8.90
2022-10-19T07:16:38.093Z,8.90
2022-10-19T07:19:13.780Z,9.00
2022-10-19T07:21:44.273Z,9.00
2022-10-19T07:24:20.787Z,9.00
2022-10-19T07:26:49.339Z,9.00
2022-10-19T07:29:24.797Z,9.00
2022-10-19T07:31:53.444Z,9.10
2022-10-19T07:34:29.133Z,9.10
2022-10-19T07:36:57.782Z,9.10
2022-10-19T07:39:34.959Z,9.20
2022-10-19T07:42:03.464Z,9.20
2022-10-19T07:44:38.788Z,9.30
2022-10-19T07:47:07.434Z,9.30
2022-10-19T07:49:42.831Z,9.30
2022-10-19T07:52:18.387Z,9.40
2022-10-19T07:54:56.805Z,9.40
2022-10-19T07:57:25.400Z,9.50
2022-10-19T08:00:00.858Z,9.60
2022-10-19T08:02:39.409Z,9.60
2022-10-19T08:05:24.931Z,9.70
2022-10-19T08:07:53.553Z,9.70
2022-10-19T08:10:29.815Z,9.80
2022-10-19T08:12:58.394Z,9.90
2022-10-19T08:15:35.735Z,10.00
2022-10-19T08:18:04.188Z,10.10
2022-10-19T08:20:38.834Z,10.10
2022-10-19T08:23:07.179Z,10.20
2022-10-19T08:25:44.749Z,10.30
2022-10-19T08:28:13.401Z,10.40
2022-10-19T08:30:48.654Z,10.40
2022-10-19T08:33:17.112Z,10.50
2022-10-19T08:35:51.962Z,10.60
2022-10-19T08:38:20.488Z,10.70
2022-10-19T08:40:59.855Z,10.70
2022-10-19T08:43:36.339Z,10.80
2022-10-19T08:46:31.696Z,10.90
2022-10-19T08:49:22.877Z,11.00
2022-10-19T08:52:02.846Z,11.00
2022-10-19T08:57:36.271Z,11.20
2022-10-19T09:00:16.767Z,11.30
2022-10-19T09:02:57.933Z,11.40
2022-10-19T09:05:43.668Z,11.40
2022-10-19T09:08:17.564Z,11.50
2022-10-19T09:10:55.711Z,11.60
2022-10-19T09:13:41.599Z,11.60
2022-10-19T09:16:25.967Z,11.70
2022-10-19T09:21:46.946Z,11.90
2022-10-19T09:24:29.915Z,12.00
2022-10-19T09:27:07.791Z,12.00
2022-10-19T09:29:45.930Z,12.10
2022-10-19T09:32:24.750Z,12.20
2022-10-19T09:34:55.712Z,12.20
2022-10-19T09:37:31.743Z,12.30
2022-10-19T09:40:00.538Z,12.40
2022-10-19T09:42:39.827Z,12.50
2022-10-19T09:45:19.582Z,12.60
2022-10-19T09:48:00.474Z,12.60
2022-10-19T09:50:45.732Z,12.70
2022-10-19T09:53:27.879Z,12.80
2022-10-19T09:56:02.143Z,12.90
2022-10-19T09:58:38.931Z,13.00
2022-10-19T10:01:39.940Z,13.20
2022-10-19T10:04:18.907Z,13.30
2022-10-19T10:06:50.099Z,13.50
2022-10-19T10:09:26.822Z,13.70
2022-10-19T10:11:58.637Z,13.90
2022-10-19T10:14:38.754Z,14.10
2022-10-19T10:17:15.923Z,14.30
2022-10-19T10:19:59.923Z,14.40
2022-10-19T10:22:31.019Z,14.50
2022-10-19T10:25:05.851Z,14.70
2022-10-19T10:27:37.086Z,14.80
2022-10-19T10:30:15.564Z,15.00
2022-10-19T10:32:49.509Z,15.20
2022-10-19T10:35:27.774Z,15.30
2022-10-19T10:38:10.199Z,15.30
2022-10-19T10:40:47.768Z,15.40
2022-10-19T10:43:19.012Z,15.50
2022-10-19T10:45:56.801Z,15.60
2022-10-19T10:48:32.907Z,15.70
2022-10-19T10:51:15.946Z,15.70
2022-10-19T10:53:45.044Z,15.80
2022-10-19T10:56:33.833Z,16.00
2022-10-19T10:59:08.099Z,16.10
2022-10-19T11:01:47.881Z,16.30
2022-10-19T11:04:22.004Z,16.40
2022-10-19T11:07:03.785Z,16.30
2022-10-19T11:09:37.939Z,16.30
2022-10-19T11:12:16.788Z,16.40
2022-10-19T11:14:49.832Z,16.40
2022-10-19T11:17:28.910Z,16.50
2022-10-19T11:19:58.952Z,16.70
2022-10-19T11:22:38.054Z,16.90
2022-10-19T11:25:26.381Z,16.90
2022-10-19T11:28:12.045Z,16.90
2022-10-19T11:30:52.033Z,16.90
2022-10-19T11:33:57.940Z,17.00
2022-10-19T11:36:43.903Z,17.00
2022-10-19T11:39:43.159Z,17.20
2022-10-19T11:42:20.043Z,17.20
2022-10-19T11:45:04.015Z,17.00
2022-10-19T11:47:51.670Z,17.00
2022-10-19T11:50:49.596Z,17.00
2022-10-19T11:53:33.044Z,16.90
2022-10-19T11:56:15.888Z,16.90
2022-10-19T11:58:55.042Z,16.90
2022-10-19T12:01:46.077Z,16.90
2022-10-19T12:04:31.705Z,16.90
2022-10-19T12:07:18.075Z,17.00
2022-10-19T12:09:55.735Z,17.00
2022-10-19T12:12:38.021Z,17.00
2022-10-19T12:15:24.434Z,17.00
2022-10-19T12:18:01.851Z,17.00
2022-10-19T12:20:36.509Z,16.80
2022-10-19T12:23:28.052Z,16.70
2022-10-19T12:26:00.033Z,16.60
2022-10-19T12:28:38.974Z,16.50
2022-10-19T12:31:08.821Z,16.40
2022-10-19T12:33:53.941Z,16.50
2022-10-19T12:36:30.566Z,16.50
2022-10-19T12:39:10.911Z,16.60
2022-10-19T12:41:47.226Z,16.60
2022-10-19T12:44:40.059Z,16.50
2022-10-19T12:47:16.611Z,16.50
2022-10-19T12:49:56.890Z,16.60
2022-10-19T12:52:42.005Z,16.50
2022-10-19T12:55:33.007Z,16.50
2022-10-19T12:58:07.614Z,16.50
2022-10-19T13:00:46.158Z,16.50
2022-10-19T13:03:25.073Z,16.50
2022-10-19T13:06:07.113Z,16.60
2022-10-19T13:08:43.720Z,16.80
2022-10-19T13:11:22.020Z,16.90
2022-10-19T13:14:06.372Z,17.10
2022-10-19T13:17:05.906Z,17.10
2022-10-19T13:19:34.504Z,17.10
2022-10-19T13:22:35.178Z,17.10
2022-10-19T13:25:28.387Z,17.20
2022-10-19T13:28:05.067Z,17.30
2022-10-19T13:31:09.402Z,17.10
2022-10-19T13:34:00.027Z,17.20
2022-10-19T13:36:28.671Z,17.40
2022-10-19T13:39:20.031Z,17.40
2022-10-19T13:41:51.636Z,17.40
2022-10-19T13:44:34.034Z,17.30
2022-10-19T13:47:40.897Z,17.20
2022-10-19T13:50:34.501Z,17.20
2022-10-19T13:53:38.157Z,17.10
2022-10-19T13:56:23.808Z,17.00
2022-10-19T13:59:40.140Z,17.00
2022-10-19T14:02:46.941Z,16.90
2022-10-19T14:05:51.013Z,16.80
2022-10-19T14:08:37.208Z,16.80
2022-10-19T14:11:13.960Z,16.80
2022-10-19T14:13:42.610Z,16.80
2022-10-19T14:16:27.158Z,16.70
2022-10-19T14:18:57.820Z,16.80
2022-10-19T14:21:40.016Z,16.70
2022-10-19T14:24:21.740Z,16.70
2022-10-19T14:26:57.251Z,16.70
2022-10-19T14:29:26.127Z,16.70
2022-10-19T14:32:01.012Z,16.60
2022-10-19T14:34:31.368Z,16.60
2022-10-19T14:37:06.214Z,16.60
2022-10-19T14:39:35.588Z,16.60
2022-10-19T14:42:13.982Z,16.60
2022-10-19T14:44:43.969Z,16.50
2022-10-19T14:47:29.467Z,16.50
2022-10-19T14:50:06.713Z,16.40
2022-10-19T14:52:49.202Z,16.30
2022-10-19T14:55:19.816Z,16.30
2022-10-19T14:57:59.105Z,16.30
2022-10-19T15:00:27.988Z,16.30
2022-10-19T15:03:07.113Z,16.30
2022-10-19T15:05:40.684Z,16.30
2022-10-19T15:08:19.146Z,16.20
2022-10-19T15:10:49.679Z,16.10
2022-10-19T15:13:32.052Z,16.10
2022-10-19T15:16:00.724Z,16.10
2022-10-19T15:18:49.193Z,16.00
2022-10-19T15:21:22.250Z,16.00
2022-10-19T15:23:58.208Z,16.00
2022-10-19T15:26:30.781Z,16.00
2022-10-19T15:29:17.236Z,15.90
2022-10-19T15:31:45.707Z,15.80
2022-10-19T15:34:32.259Z,15.80
2022-10-19T15:37:03.654Z,15.70
2022-10-19T15:39:44.756Z,15.70
2022-10-19T15:42:25.128Z,15.70
2022-10-19T15:45:00.157Z,15.60
2022-10-19T15:47:29.012Z,15.60
2022-10-19T15:50:13.025Z,15.50
2022-10-19T15:52:49.688Z,15.50
2022-10-19T15:55:24.068Z,15.40
2022-10-19T15:58:00.430Z,15.30
2022-10-19T16:00:38.242Z,15.30
2022-10-19T16:03:12.296Z,15.30
2022-10-19T16:05:47.086Z,15.20
2022-10-19T16:08:16.951Z,15.20
2022-10-19T16:10:52.307Z,15.10
2022-10-19T16:13:20.763Z,15.10
2022-10-19T16:16:06.916Z,15.00
2022-10-19T16:18:40.072Z,15.00
2022-10-19T16:21:15.398Z,14.90
2022-10-19T16:23:49.240Z,14.90
2022-10-19T16:26:25.164Z,14.90
2022-10-19T16:28:53.692Z,14.80
2022-10-19T16:31:29.193Z,14.80
2022-10-19T16:33:57.637Z,14.80
2022-10-19T16:36:33.163Z,14.70
2022-10-19T16:39:05.037Z,14.70
2022-10-19T16:41:40.183Z,14.60
2022-10-19T16:44:08.717Z,14.60
2022-10-19T16:46:43.185Z,14.60
2022-10-19T16:49:12.009Z,14.50
2022-10-19T16:52:00.385Z,14.50
2022-10-19T16:54:32.952Z,14.50
2022-10-19T16:57:09.936Z,14.40
2022-10-19T16:59:38.561Z,14.40
2022-10-19T17:02:13.200Z,14.40
2022-10-19T17:04:41.752Z,14.40
2022-10-19T17:07:18.232Z,14.40
2022-10-19T17:09:49.761Z,14.30
2022-10-19T17:12:27.223Z,14.30
2022-10-19T17:15:02.938Z,14.30
2022-10-19T17:17:50.148Z,14.30
2022-10-19T17:20:18.701Z,14.30
2022-10-19T17:22:54.303Z,14.20
2022-10-19T17:25:24.242Z,14.20
2022-10-19T17:27:59.233Z,14.10
2022-10-19T17:30:27.832Z,14.10
2022-10-19T17:33:03.215Z,14.10
2022-10-19T17:35:31.638Z,14.10
2022-10-19T17:38:07.156Z,14.10
2022-10-19T17:40:37.246Z,14.10
2022-10-19T17:43:12.257Z,14.00
2022-10-19T17:45:41.002Z,14.00
2022-10-19T17:48:16.344Z,14.00
2022-10-19T17:51:11.330Z,13.90
2022-10-19T17:53:46.166Z,13.90
2022-10-19T17:56:18.682Z,13.90
2022-10-19T17:58:54.274Z,13.80
2022-10-19T18:01:24.183Z,13.80
2022-10-19T18:03:59.208Z,13.70
2022-10-19T18:06:29.696Z,13.80
2022-10-19T18:09:06.245Z,13.80
2022-10-19T18:11:39.020Z,13.70
2022-10-19T18:14:16.410Z,13.70
2022-10-19T18:16:47.012Z,13.70
2022-10-19T18:19:24.224Z,13.60
2022-10-19T18:21:53.790Z,13.60
2022-10-19T18:24:29.362Z,13.60
2022-10-19T18:26:59.585Z,13.60
2022-10-19T18:29:35.354Z,13.50
2022-10-19T18:34:44.414Z,13.50
2022-10-19T18:37:13.116Z,13.50
2022-10-19T18:39:48.231Z,13.50
2022-10-19T18:42:17.920Z,13.50
2022-10-19T18:44:54.191Z,13.50
2022-10-19T18:47:22.732Z,13.50
2022-10-19T18:49:57.399Z,13.50
2022-10-19T18:52:36.492Z,13.50
2022-10-19T18:55:12.317Z,13.40
2022-10-19T18:57:42.285Z,13.50
2022-10-19T19:00:18.308Z,13.40
2022-10-19T19:02:47.524Z,13.40
2022-10-19T19:05:22.428Z,13.40
2022-10-19T19:07:50.982Z,13.40
2022-10-19T19:10:26.539Z,13.40
2022-10-19T19:12:56.271Z,13.40
2022-10-19T19:15:31.407Z,13.40
2022-10-19T19:17:59.937Z,13.40
2022-10-19T19:20:35.290Z,13.40
2022-10-19T19:23:04.108Z,13.40
2022-10-19T19:25:39.304Z,13.40
2022-10-19T19:28:09.365Z,13.30
2022-10-19T19:30:48.278Z,13.30
2022-10-19T19:33:16.839Z,13.30
2022-10-19T19:35:52.434Z,13.30
2022-10-19T19:38:20.961Z,13.30
2022-10-19T19:40:56.362Z,13.30
2022-10-19T19:43:26.951Z,13.30
2022-10-19T19:46:08.094Z,13.30
2022-10-19T19:48:37.804Z,13.20
2022-10-19T19:51:13.396Z,13.30
2022-10-19T19:53:42.068Z,13.30
2022-10-19T19:56:19.489Z,13.20
2022-10-19T19:58:49.730Z,13.20
2022-10-19T20:01:27.372Z,13.20
2022-10-19T20:03:56.413Z,13.20
2022-10-19T20:06:31.386Z,13.20
2022-10-19T20:09:00.419Z,13.10
2022-10-19T20:11:41.839Z,13.10
2022-10-19T20:14:12.743Z,13.10
2022-10-19T20:16:48.413Z,13.00
2022-10-19T20:19:17.089Z,13.00
2022-10-19T20:21:52.547Z,12.90
2022-10-19T20:24:21.088Z,12.90
2022-10-19T20:26:56.324Z,12.90
2022-10-19T20:29:26.207Z,12.90
2022-10-19T20:32:01.481Z,12.90
2022-10-19T20:34:29.882Z,12.90
2022-10-19T20:37:04.432Z,12.80
2022-10-19T20:39:32.984Z,12.80
2022-10-19T20:42:08.369Z,12.80
2022-10-19T20:44:38.193Z,12.80
2022-10-19T20:47:13.357Z,12.80
2022-10-19T20:49:42.222Z,12.80
2022-10-19T20:52:17.340Z,12.70
2022-10-19T20:54:45.792Z,12.70
2022-10-19T20:57:20.381Z,12.70
2022-10-19T20:59:50.720Z,12.70
2022-10-19T21:02:25.408Z,12.60
2022-10-19T21:04:53.826Z,12.60
2022-10-19T21:07:28.358Z,12.60
2022-10-19T21:10:03.547Z,12.60
2022-10-19T21:12:32.736Z,12.60
2022-10-19T21:15:09.562Z,12.60
2022-10-19T21:17:38.113Z,12.60
2022-10-19T21:20:13.590Z,12.60
2022-10-19T21:22:42.360Z,12.60
2022-10-19T21:25:25.057Z,12.50
2022-10-19T21:27:53.741Z,12.50
2022-10-19T21:30:30.419Z,12.50
2022-10-19T21:32:59.184Z,12.50
2022-10-19T21:35:34.540Z,12.50
2022-10-19T21:38:03.223Z,12.40
2022-10-19T21:40:38.394Z,12.40
2022-10-19T21:43:06.796Z,12.40
2022-10-19T21:45:45.475Z,12.40
2022-10-19T21:48:13.890Z,12.40
2022-10-19T21:50:48.543Z,12.30
2022-10-19T21:53:25.901Z,12.30
2022-10-19T21:56:02.092Z,12.30
2022-10-19T21:58:30.677Z,12.30
2022-10-19T22:01:13.466Z,12.20
2022-10-19T22:03:41.804Z,12.20
2022-10-19T22:06:17.410Z,12.20
2022-10-19T22:08:48.079Z,12.20
2022-10-19T22:11:23.565Z,12.10
2022-10-19T22:13:55.461Z,12.10
2022-10-19T22:16:32.452Z,12.10
2022-10-19T22:19:01.207Z,12.10
2022-10-19T22:24:09.116Z,12.00
2022-10-19T22:26:46.399Z,12.00
2022-10-19T22:29:15.742Z,12.00
2022-10-19T22:31:52.460Z,12.00
2022-10-19T22:34:21.001Z,12.00
2022-10-19T22:36:56.628Z,11.90
2022-10-19T22:39:27.746Z,11.90
2022-10-19T22:42:16.393Z,11.90
2022-10-19T22:44:51.286Z,11.90
2022-10-19T22:47:27.614Z,11.90
2022-10-19T22:49:56.175Z,11.90
2022-10-19T22:52:38.125Z,11.90
2022-10-19T22:55:14.279Z,11.90
2022-10-19T22:57:49.633Z,11.90
2022-10-19T23:00:18.387Z,11.80
2022-10-19T23:02:54.665Z,11.80
2022-10-19T23:05:23.311Z,11.80
2022-10-19T23:07:58.711Z,11.80
2022-10-19T23:10:27.411Z,11.80
2022-10-19T23:13:02.475Z,11.80
2022-10-19T23:15:30.945Z,11.80
2022-10-19T23:18:08.689Z,11.80
2022-10-19T23:20:37.426Z,11.80
2022-10-19T23:23:12.510Z,11.80
2022-10-19T23:25:41.308Z,11.80
2022-10-19T23:28:16.532Z,11.70
2022-10-19T23:30:45.059Z,11.70
2022-10-19T23:33:21.657Z,11.70
2022-10-19T23:35:50.080Z,11.70
2022-10-19T23:38:25.581Z,11.70
2022-10-19T23:40:54.184Z,11.70
2022-10-19T23:43:29.584Z,11.70
2022-10-19T23:45:58.309Z,11.70
2022-10-19T23:48:34.524Z,11.60
2022-10-19T23:51:24.526Z,11.60
2022-10-19T23:54:00.587Z,11.60
2022-10-19T23:56:31.281Z,11.60
2022-10-19T23:59:06.475Z,11.60
